Time;durP1;ratioP1;P1;durP2;ratioP2;P2;SDS_P1;SDS_P2;PMS_P1;PMS_P2;Temp;Humidity;BMP_temperature;BMP_pressure;BME280_temperature;BME280_humidity;BME280_pressure;Samples;Min_cycle;Max_cycle;Signal;HPM_P1;HPM_P2
2023/10/12 00:02:32;;;;;;;4.50;1.75;;;26.70;43.60;;;;;;5045920;28;20051;-80
2023/10/12 00:07:45;;;;;;;4.30;1.88;;;27.20;43.00;;;;;;5048797;28;20119;-79
2023/10/12 00:12:45;;;;;;;3.15;1.70;;;27.60;42.00;;;;;;5044871;28;20038;-79
2023/10/12 00:17:52;;;;;;;5.75;2.10;;;28.00;40.10;;;;;;5043286;28;20033;-79
2023/10/12 00:20:25;;;;;;;7.70;2.50;;;28.20;41.00;;;;;;5036978;28;20030;-81
2023/10/12 00:22:53;;;;;;;5.35;2.30;;;28.50;41.90;;;;;;5035580;28;20045;-78
2023/10/12 00:25:20;;;;;;;5.82;2.50;;;28.80;41.70;;;;;;5033701;28;20021;-80
2023/10/12 00:27:51;;;;;;;7.25;2.30;;;28.90;42.10;;;;;;5039834;28;20071;-79
2023/10/12 00:30:18;;;;;;;5.85;2.15;;;29.10;41.60;;;;;;5040703;28;20103;-79
2023/10/12 00:32:46;;;;;;;8.50;2.30;;;29.10;42.10;;;;;;5041186;28;20025;-79
2023/10/12 00:35:19;;;;;;;6.50;2.38;;;29.10;40.70;;;;;;5034303;28;20105;-84
2023/10/12 00:37:47;;;;;;;8.88;2.45;;;29.10;40.90;;;;;;5040661;28;20036;-78
2023/10/12 00:40:30;;;;;;;4.90;2.20;;;29.20;42.40;;;;;;5045272;28;20494;-82
2023/10/12 00:43:01;;;;;;;5.32;2.05;;;29.30;42.70;;;;;;5042248;28;20022;-83
2023/10/12 00:45:32;;;;;;;6.70;2.20;;;29.60;42.30;;;;;;5040224;28;20021;-86
2023/10/12 00:48:08;;;;;;;6.28;2.05;;;29.70;42.50;;;;;;5055592;28;20020;-85
2023/10/12 00:50:37;;;;;;;4.85;2.10;;;29.80;41.80;;;;;;5044658;28;20059;-87
2023/10/12 00:53:31;;;;;;;4.88;1.85;;;30.00;41.30;;;;;;5066300;28;20021;-85
2023/10/12 00:56:02;;;;;;;5.88;2.35;;;30.10;41.30;;;;;;5048092;28;20071;-87
2023/10/12 00:58:31;;;;;;;5.93;1.90;;;30.20;41.80;;;;;;5065310;28;20048;-85
2023/10/12 01:01:02;;;;;;;4.88;2.00;;;30.30;40.10;;;;;;5057559;28;20017;-84
2023/10/12 01:03:36;;;;;;;5.15;2.13;;;30.20;41.20;;;;;;5035283;28;20029;-87
2023/10/12 01:08:43;;;;;;;4.63;2.00;;;30.30;40.70;;;;;;5055847;28;20021;-86
2023/10/12 01:11:21;;;;;;;5.57;2.15;;;30.30;41.10;;;;;;5048032;28;20132;-86
2023/10/12 01:16:46;;;;;;;6.38;2.25;;;30.50;40.00;;;;;;5035093;28;20025;-85
2023/10/12 01:19:23;;;;;;;5.57;2.25;;;30.50;40.20;;;;;;5068016;28;20491;-86
2023/10/12 01:22:25;;;;;;;5.38;2.47;;;30.50;39.50;;;;;;5051791;28;20071;-85
2023/10/12 01:25:10;;;;;;;8.15;2.38;;;30.40;40.20;;;;;;5039838;28;20064;-85
2023/10/12 01:27:41;;;;;;;5.30;2.60;;;30.50;40.50;;;;;;5045594;28;20102;-81
2023/10/12 01:30:13;;;;;;;3.92;2.10;;;30.50;40.60;;;;;;5051526;28;20033;-78
2023/10/12 01:32:41;;;;;;;4.88;2.20;;;30.50;39.60;;;;;;5045693;28;20036;-82
2023/10/12 01:35:11;;;;;;;9.07;2.28;;;30.60;39.80;;;;;;5050620;28;20621;-79
2023/10/12 01:38:00;;;;;;;7.53;2.72;;;30.70;39.90;;;;;;5040871;28;20048;-78
2023/10/12 01:41:25;;;;;;;8.63;2.35;;;30.70;40.30;;;;;;5046306;28;20036;-78
2023/10/12 01:43:17;;;;;;;6.80;2.63;;;30.80;39.20;;;;;;5044969;28;20143;-80
2023/10/12 01:45:50;;;;;;;4.07;2.20;;;30.90;39.20;;;;;;5052958;28;20484;-76
2023/10/12 01:48:23;;;;;;;7.97;2.58;;;30.80;39.60;;;;;;5045278;28;20025;-79
2023/10/12 01:50:50;;;;;;;6.68;2.33;;;30.80;38.90;;;;;;5051604;28;20033;-85
2023/10/12 01:53:29;;;;;;;5.53;2.63;;;30.80;39.70;;;;;;5042970;28;20484;-79
2023/10/12 01:56:00;;;;;;;6.57;2.70;;;30.90;40.30;;;;;;5052722;28;20043;-84
2023/10/12 01:58:28;;;;;;;7.15;2.38;;;30.90;40.60;;;;;;5034480;28;20042;-78
2023/10/12 02:01:04;;;;;;;6.55;2.65;;;30.90;40.30;;;;;;5048038;28;20021;-84
2023/10/12 02:03:32;;;;;;;9.05;2.90;;;30.80;40.70;;;;;;5039135;28;20060;-81
2023/10/12 02:06:00;;;;;;;5.63;2.70;;;30.90;39.40;;;;;;5039997;28;20416;-81
2023/10/12 02:08:39;;;;;;;6.47;2.60;;;31.10;39.00;;;;;;5047180;28;20022;-78
2023/10/12 02:13:54;;;;;;;11.45;3.08;;;31.00;39.80;;;;;;5045975;28;20085;-79
2023/10/12 02:16:32;;;;;;;6.28;2.83;;;30.80;40.60;;;;;;5048654;28;20028;-81
2023/10/12 02:19:04;;;;;;;10.27;3.15;;;30.80;40.80;;;;;;5060306;28;20167;-81
2023/10/12 02:21:40;;;;;;;5.28;2.75;;;30.60;40.90;;;;;;5047056;28;20103;-80
2023/10/12 02:24:12;;;;;;;8.40;2.60;;;30.50;41.40;;;;;;5068797;28;20032;-84
2023/10/12 02:27:00;;;;;;;7.32;2.38;;;30.40;41.80;;;;;;5047157;28;20142;-83
2023/10/12 02:29:29;;;;;;;7.70;2.95;;;30.40;41.90;;;;;;5040582;28;20040;-86
2023/10/12 02:31:58;;;;;;;8.15;3.05;;;30.30;41.90;;;;;;5043873;28;20174;-84
2023/10/12 02:34:29;;;;;;;5.75;2.65;;;30.30;42.00;;;;;;5055938;28;20060;-85
2023/10/12 02:39:42;;;;;;;5.95;2.65;;;30.20;42.00;;;;;;5055354;28;20473;-84
2023/10/12 02:42:18;;;;;;;6.83;2.93;;;30.20;42.20;;;;;;5054834;28;20407;-85
2023/10/12 02:47:29;;;;;;;7.35;2.95;;;30.00;42.10;;;;;;5043623;28;20060;-84
2023/10/12 02:52:36;;;;;;;6.53;2.63;;;29.90;42.30;;;;;;5053339;28;20550;-86
2023/10/12 02:55:49;;;;;;;8.10;2.55;;;29.90;42.40;;;;;;5048516;28;20055;-82
2023/10/12 02:57:59;;;;;;;10.43;3.20;;;29.80;42.70;;;;;;5049354;28;20041;-82
2023/10/12 03:00:44;;;;;;;12.18;2.75;;;29.80;43.10;;;;;;5049921;28;20021;-78
2023/10/12 03:05:52;;;;;;;10.45;2.92;;;29.80;43.10;;;;;;5043174;28;20061;-78
2023/10/12 03:08:22;;;;;;;9.55;3.15;;;29.70;43.30;;;;;;5039028;28;20369;-79
2023/10/12 03:13:37;;;;;;;9.68;2.90;;;29.70;42.80;;;;;;5035289;28;20112;-80
2023/10/12 03:18:45;;;;;;;8.88;2.55;;;29.80;43.40;;;;;;5050878;28;20041;-78
2023/10/12 03:21:13;;;;;;;12.98;2.63;;;29.80;43.20;;;;;;5053414;28;20048;-78
2023/10/12 03:23:48;;;;;;;12.82;2.65;;;29.80;43.30;;;;;;5048877;28;20060;-77
2023/10/12 03:26:23;;;;;;;9.13;2.65;;;29.90;43.00;;;;;;5056549;28;20024;-78
2023/10/12 03:28:53;;;;;;;8.75;2.70;;;30.00;43.10;;;;;;5063932;28;20029;-80
2023/10/12 03:31:23;;;;;;;11.52;3.00;;;30.00;43.90;;;;;;5069770;28;20029;-80
2023/10/12 03:33:54;;;;;;;11.43;2.90;;;29.90;43.80;;;;;;5043924;28;20546;-79
2023/10/12 03:36:32;;;;;;;7.55;3.05;;;30.10;44.00;;;;;;5047970;28;20476;-78
2023/10/12 03:42:52;;;;;;;11.13;2.97;;;30.20;44.10;;;;;;5045037;28;20481;-83
2023/10/12 03:45:08;;;;;;;9.55;2.90;;;30.30;43.80;;;;;;5042104;28;20080;-78
2023/10/12 03:48:02;;;;;;;7.20;2.53;;;30.40;43.30;;;;;;5050688;28;20036;-78
2023/10/12 03:50:27;;;;;;;6.43;2.47;;;30.70;42.90;;;;;;5048272;28;20025;-82
2023/10/12 03:52:54;;;;;;;15.30;3.25;;;30.80;42.10;;;;;;5066126;28;20025;-80
2023/10/12 03:55:26;;;;;;;6.25;2.60;;;30.80;41.40;;;;;;5048287;28;20022;-83
2023/10/12 03:58:15;;;;;;;9.82;2.65;;;30.90;40.90;;;;;;5043114;28;20083;-79
2023/10/12 04:00:48;;;;;;;7.90;2.72;;;31.10;39.30;;;;;;5040413;28;20040;-81
2023/10/12 04:03:18;;;;;;;9.15;2.55;;;31.30;38.90;;;;;;5040783;28;20037;-83
2023/10/12 04:05:56;;;;;;;7.10;2.53;;;31.30;38.40;;;;;;5063685;28;20037;-79
2023/10/12 04:18:46;;;;;;;2.72;1.30;;;31.90;34.00;;;;;;5043793;28;20591;-83
2023/10/12 04:21:17;;;;;;;2.35;1.30;;;32.00;28.10;;;;;;5045336;28;20407;-86
2023/10/12 04:34:15;;;;;;;4.72;1.88;;;32.50;35.60;;;;;;5052447;28;20025;-86
2023/10/12 04:36:48;;;;;;;9.15;2.33;;;32.40;36.60;;;;;;5049891;28;20052;-85
2023/10/12 04:39:24;;;;;;;5.93;1.85;;;32.30;36.30;;;;;;5041001;28;20063;-79
2023/10/12 04:47:10;;;;;;;5.53;2.30;;;32.20;33.00;;;;;;5038155;28;20032;-81
2023/10/12 04:49:54;;;;;;;7.43;2.10;;;32.20;35.50;;;;;;5044773;28;20105;-81
2023/10/12 04:53:06;;;;;;;12.45;2.78;;;32.30;35.90;;;;;;5045511;28;20081;-80
2023/10/12 04:57:43;;;;;;;7.28;2.30;;;32.00;36.30;;;;;;5051821;28;20021;-78
2023/10/12 05:07:57;;;;;;;8.65;2.40;;;31.90;37.20;;;;;;5053136;28;20028;-80
2023/10/12 05:10:46;;;;;;;8.10;2.50;;;31.80;37.60;;;;;;5040440;28;20032;-80
2023/10/12 05:13:19;;;;;;;9.05;2.65;;;31.80;38.30;;;;;;5044574;28;20112;-86
2023/10/12 05:15:55;;;;;;;7.90;2.22;;;31.80;38.70;;;;;;5046716;28;20372;-84
2023/10/12 05:18:24;;;;;;;7.82;2.42;;;31.60;38.90;;;;;;5057535;28;20041;-83
2023/10/12 05:20:52;;;;;;;8.93;2.83;;;31.50;39.80;;;;;;5046972;28;20025;-85
2023/10/12 05:23:21;;;;;;;9.23;2.50;;;31.40;39.70;;;;;;5046370;28;20484;-82
2023/10/12 05:26:25;;;;;;;9.30;2.55;;;31.30;39.80;;;;;;5041988;28;20037;-86
2023/10/12 05:28:57;;;;;;;5.43;2.22;;;31.20;40.40;;;;;;5036545;28;20044;-83
2023/10/12 05:31:28;;;;;;;7.85;3.15;;;31.00;40.70;;;;;;5037989;28;20494;-82
2023/10/12 05:34:32;;;;;;;10.55;2.58;;;31.10;41.00;;;;;;5046260;28;20031;-81
2023/10/12 05:36:42;;;;;;;5.43;2.10;;;31.10;40.30;;;;;;5036145;28;20397;-83
2023/10/12 05:39:12;;;;;;;9.30;2.58;;;31.10;40.50;;;;;;5046172;28;20018;-81
2023/10/12 05:41:41;;;;;;;5.38;2.03;;;31.10;39.20;;;;;;5052178;28;20039;-77
2023/10/12 05:44:15;;;;;;;2.70;1.30;;;31.20;36.00;;;;;;5050322;28;20067;-78
2023/10/12 05:46:50;;;;;;;1.75;1.40;;;31.30;31.50;;;;;;5052599;28;20043;-81
2023/10/12 05:49:23;;;;;;;5.63;1.35;;;31.50;27.50;;;;;;5046320;28;20412;-83
2023/10/12 05:51:50;;;;;;;7.45;2.40;;;31.70;27.70;;;;;;5047927;28;20048;-82
2023/10/12 05:54:20;;;;;;;8.43;2.50;;;31.90;31.10;;;;;;5049066;28;20108;-82
2023/10/12 05:56:54;;;;;;;9.63;2.90;;;32.00;36.80;;;;;;5047824;28;20063;-84
2023/10/12 05:59:22;;;;;;;11.18;2.92;;;31.90;38.40;;;;;;5045844;28;20041;-83
2023/10/12 06:01:50;;;;;;;10.77;3.33;;;31.80;39.80;;;;;;5057082;28;20025;-80
2023/10/12 06:04:21;;;;;;;15.55;3.25;;;31.40;40.40;;;;;;5050892;28;20029;-86
2023/10/12 06:06:51;;;;;;;12.52;3.17;;;31.20;41.20;;;;;;5047789;28;20426;-83
2023/10/12 06:09:23;;;;;;;9.63;2.85;;;31.00;41.90;;;;;;5037239;28;20468;-83
2023/10/12 06:11:53;;;;;;;10.85;3.28;;;30.90;42.10;;;;;;5064971;28;20042;-80
2023/10/12 06:14:21;;;;;;;10.52;3.22;;;30.70;42.70;;;;;;5050480;28;20080;-82
2023/10/12 06:17:02;;;;;;;13.45;3.42;;;30.60;42.90;;;;;;5049773;28;20720;-80
2023/10/12 06:19:34;;;;;;;12.50;3.25;;;30.40;43.20;;;;;;5049372;28;20044;-84
2023/10/12 06:22:32;;;;;;;11.32;3.55;;;30.10;43.20;;;;;;5066396;28;20020;-82
2023/10/12 06:25:00;;;;;;;11.98;3.40;;;29.80;43.90;;;;;;5039758;28;20026;-80
2023/10/12 06:27:30;;;;;;;13.18;3.33;;;29.40;44.30;;;;;;5045553;28;20349;-81
2023/10/12 06:30:04;;;;;;;11.50;3.38;;;29.10;44.70;;;;;;5043434;28;20454;-80
2023/10/12 06:32:32;;;;;;;13.27;3.03;;;28.80;45.40;;;;;;5052042;28;20083;-80
2023/10/12 06:45:56;;;;;;;12.43;3.03;;;28.30;46.20;;;;;;5048239;28;20155;-81
2023/10/12 06:51:11;;;;;;;11.73;2.90;;;28.20;45.90;;;;;;5034117;28;20055;-81
2023/10/12 06:53:41;;;;;;;12.18;2.95;;;28.20;45.90;;;;;;5037632;28;20029;-78
2023/10/12 06:56:24;;;;;;;8.50;3.03;;;28.10;45.40;;;;;;5031238;28;20025;-80
2023/10/12 06:59:09;;;;;;;12.73;3.15;;;28.00;45.70;;;;;;5033697;28;20116;-79
2023/10/12 07:04:20;;;;;;;10.25;2.85;;;27.70;45.50;;;;;;5048342;28;20029;-81
2023/10/12 07:07:07;;;;;;;7.57;2.60;;;27.60;44.80;;;;;;5049051;28;20029;-80
2023/10/12 07:12:10;;;;;;;9.85;3.40;;;27.50;44.80;;;;;;5039682;28;20448;-79
2023/10/12 07:14:42;;;;;;;9.32;2.70;;;27.40;44.30;;;;;;5043220;28;20025;-79
2023/10/12 07:17:10;;;;;;;10.50;2.53;;;27.30;45.00;;;;;;5034004;28;20025;-79
2023/10/12 07:19:46;;;;;;;7.60;2.95;;;27.20;45.00;;;;;;5047111;28;20040;-79
2023/10/12 07:22:18;;;;;;;16.98;3.05;;;27.20;44.80;;;;;;5043773;28;20116;-79
2023/10/12 07:24:56;;;;;;;7.47;2.35;;;27.10;45.80;;;;;;5036148;28;20040;-79
2023/10/12 07:27:25;;;;;;;7.65;2.85;;;27.00;45.80;;;;;;5045335;28;20031;-80
2023/10/12 07:30:30;;;;;;;14.88;2.90;;;26.90;45.80;;;;;;5038327;28;20039;-83
2023/10/12 07:33:04;;;;;;;9.23;2.90;;;26.80;46.30;;;;;;5057883;28;20033;-79
2023/10/12 07:35:32;;;;;;;9.50;3.58;;;26.80;46.10;;;;;;5041097;28;20026;-84
2023/10/12 07:38:00;;;;;;;10.57;3.65;;;26.80;46.10;;;;;;5043757;28;20046;-81
2023/10/12 07:40:36;;;;;;;13.75;4.10;;;26.70;46.50;;;;;;5059712;28;20472;-79
2023/10/12 07:43:07;;;;;;;14.05;3.15;;;26.70;46.80;;;;;;5046254;28;20053;-79
2023/10/12 07:45:38;;;;;;;13.80;3.83;;;26.60;46.80;;;;;;5038373;28;20451;-81
2023/10/12 07:48:09;;;;;;;13.40;4.15;;;26.50;47.30;;;;;;5052273;28;20033;-80
2023/10/12 07:50:45;;;;;;;10.80;2.97;;;26.40;47.30;;;;;;5039625;28;20369;-82
2023/10/12 07:53:23;;;;;;;14.18;4.45;;;26.30;48.20;;;;;;5047111;28;20102;-82
2023/10/12 07:56:05;;;;;;;15.05;4.82;;;26.30;48.50;;;;;;5047778;28;20029;-85
2023/10/12 07:58:35;;;;;;;14.35;4.40;;;26.30;48.20;;;;;;5033515;28;20138;-83
2023/10/12 08:01:21;;;;;;;13.20;4.47;;;26.20;48.30;;;;;;5033759;28;20076;-84
2023/10/12 08:03:52;;;;;;;12.82;4.47;;;26.20;48.40;;;;;;5038847;28;20476;-84
2023/10/12 08:11:50;;;;;;;10.25;5.07;;;26.00;49.00;;;;;;5041425;28;20087;-82
2023/10/12 08:19:43;;;;;;;11.35;5.53;;;25.80;48.70;;;;;;5034305;28;20985;-82
2023/10/12 08:22:46;;;;;;;16.58;6.03;;;25.80;49.10;;;;;;5038848;28;20219;-81
2023/10/12 08:25:07;;;;;;;18.75;8.27;;;25.80;49.30;;;;;;5042158;28;20044;-83
2023/10/12 08:28:05;;;;;;;19.05;8.32;;;25.70;48.90;;;;;;5043282;28;20057;-84
2023/10/12 08:30:56;;;;;;;20.02;7.95;;;25.60;48.90;;;;;;5040367;28;20075;-84
2023/10/12 08:33:48;;;;;;;16.63;6.75;;;25.60;49.80;;;;;;5045477;28;20021;-84
2023/10/12 08:38:54;;;;;;;15.15;7.03;;;25.50;50.20;;;;;;5038431;28;20484;-83
2023/10/12 08:43:52;;;;;;;13.68;6.03;;;25.50;50.50;;;;;;5047809;28;20052;-83
2023/10/12 08:46:50;;;;;;;17.05;7.00;;;25.40;51.00;;;;;;5046281;28;20503;-84
2023/10/12 08:55:11;;;;;;;14.95;6.45;;;25.30;50.20;;;;;;5021293;28;20125;-82
2023/10/12 08:58:01;;;;;;;17.98;5.10;;;25.30;49.40;;;;;;5039203;28;20028;-83
2023/10/12 09:03:24;;;;;;;17.63;4.53;;;24.90;49.10;;;;;;5036856;28;20484;-83
2023/10/12 09:05:55;;;;;;;17.10;2.70;;;24.90;45.70;;;;;;5041735;28;20364;-83
2023/10/12 09:10:55;;;;;;;8.52;1.90;;;25.20;42.00;;;;;;5051389;28;20031;-80
2023/10/12 09:13:36;;;;;;;11.77;2.15;;;25.30;43.00;;;;;;5044942;28;20032;-83
2023/10/12 09:16:09;;;;;;;8.50;2.00;;;25.30;47.20;;;;;;5038736;28;20035;-87
2023/10/12 09:18:49;;;;;;;10.82;2.15;;;25.00;50.20;;;;;;5037270;28;20029;-81
2023/10/12 09:23:52;;;;;;;13.52;2.13;;;24.30;53.60;;;;;;5039856;28;20029;-83
2023/10/12 09:26:30;;;;;;;11.00;2.10;;;24.30;55.40;;;;;;5044522;28;20029;-83
2023/10/12 09:29:12;;;;;;;10.32;2.25;;;24.10;55.90;;;;;;5034091;28;20068;-85
2023/10/12 09:36:53;;;;;;;5.85;2.10;;;24.10;57.10;;;;;;5040641;28;20025;-82
2023/10/12 09:39:28;;;;;;;8.25;2.85;;;24.00;56.60;;;;;;5042729;28;20124;-83
2023/10/12 09:42:30;;;;;;;6.93;2.30;;;23.90;57.40;;;;;;5032707;28;20029;-84
2023/10/12 09:45:05;;;;;;;6.22;2.13;;;23.90;57.60;;;;;;5036270;28;20029;-84
2023/10/12 09:47:55;;;;;;;8.88;2.05;;;23.90;57.00;;;;;;5040167;28;20342;-84
2023/10/12 09:50:27;;;;;;;4.93;1.92;;;23.80;57.30;;;;;;5038504;28;20036;-81
2023/10/12 09:53:09;;;;;;;4.05;1.98;;;23.80;57.40;;;;;;5061246;28;20493;-82
2023/10/12 09:56:10;;;;;;;6.35;1.95;;;23.70;56.90;;;;;;5052947;28;20056;-84
2023/10/12 09:58:32;;;;;;;5.13;2.10;;;23.70;57.40;;;;;;5052644;28;20096;-83
2023/10/12 10:01:01;;;;;;;7.10;1.90;;;23.70;56.60;;;;;;5050037;28;20059;-81
2023/10/12 10:03:49;;;;;;;8.35;1.80;;;23.60;56.80;;;;;;5039774;28;20032;-80
2023/10/12 10:06:37;;;;;;;4.07;1.60;;;23.60;55.80;;;;;;5034696;28;20028;-85
2023/10/12 10:09:24;;;;;;;5.07;2.10;;;23.40;55.80;;;;;;5047629;28;20028;-81
2023/10/12 10:12:04;;;;;;;4.82;1.83;;;23.40;55.20;;;;;;5041790;28;20352;-82
2023/10/12 10:14:35;;;;;;;5.65;1.50;;;23.30;54.20;;;;;;5044353;28;20114;-83
2023/10/12 10:17:07;;;;;;;2.70;1.70;;;23.20;54.00;;;;;;5051738;28;20025;-83
2023/10/12 10:19:35;;;;;;;5.10;1.58;;;23.20;54.60;;;;;;5039403;28;20106;-81
2023/10/12 10:22:06;;;;;;;4.25;1.50;;;23.00;54.70;;;;;;5041360;28;20384;-81
2023/10/12 10:24:54;;;;;;;3.38;1.30;;;22.90;55.20;;;;;;5049625;28;20021;-81
2023/10/12 10:27:36;;;;;;;3.67;1.50;;;22.80;53.90;;;;;;5056482;28;20025;-82
2023/10/12 10:30:40;;;;;;;2.72;1.23;;;22.70;53.00;;;;;;5052215;28;20052;-84
2023/10/12 10:33:15;;;;;;;3.70;1.40;;;22.60;50.50;;;;;;5027257;28;20539;-85
2023/10/12 10:44:33;;;;;;;4.72;1.60;;;22.20;50.70;;;;;;5039618;28;20450;-84
2023/10/12 10:47:12;;;;;;;5.28;1.45;;;22.10;49.90;;;;;;5039893;28;20033;-82
2023/10/12 10:49:42;;;;;;;9.82;1.40;;;21.90;49.70;;;;;;5039431;28;20076;-84
2023/10/12 10:52:20;;;;;;;2.67;1.30;;;21.80;49.10;;;;;;5047810;28;20024;-84
2023/10/12 10:55:00;;;;;;;3.03;1.00;;;21.70;49.40;;;;;;5048692;28;20032;-80
2023/10/12 10:57:37;;;;;;;2.65;1.20;;;21.50;48.20;;;;;;5042638;28;20021;-83
2023/10/12 11:00:18;;;;;;;3.63;1.30;;;21.30;48.80;;;;;;5044820;28;20037;-83
2023/10/12 11:02:48;;;;;;;4.53;1.05;;;21.10;47.20;;;;;;5041607;28;20043;-82
2023/10/12 11:05:19;;;;;;;3.40;1.08;;;20.90;47.00;;;;;;5042011;28;20116;-83
2023/10/12 11:07:50;;;;;;;2.15;1.00;;;20.80;46.50;;;;;;5049736;28;20029;-85
2023/10/12 11:10:31;;;;;;;2.60;1.45;;;20.70;47.30;;;;;;5043001;28;20120;-84
2023/10/12 11:13:03;;;;;;;1.30;0.68;;;20.60;45.80;;;;;;5038582;28;20136;-82
2023/10/12 11:15:32;;;;;;;2.70;0.88;;;20.50;45.20;;;;;;5041189;28;20056;-84
2023/10/12 11:18:07;;;;;;;3.30;0.90;;;20.30;45.60;;;;;;5039191;28;20220;-84
2023/10/12 11:20:43;;;;;;;2.75;0.70;;;20.20;46.00;;;;;;5043875;28;20116;-83
2023/10/12 11:23:11;;;;;;;1.15;0.65;;;20.10;46.40;;;;;;5046891;28;20032;-85
2023/10/12 11:25:41;;;;;;;4.97;0.70;;;20.00;45.70;;;;;;5035856;28;20108;-84
2023/10/12 11:28:26;;;;;;;3.40;0.70;;;20.00;45.90;;;;;;5051836;28;20508;-83
2023/10/12 11:31:01;;;;;;;1.10;0.65;;;19.90;45.70;;;;;;5041849;28;20037;-82
2023/10/12 11:33:30;;;;;;;3.55;0.65;;;19.80;45.50;;;;;;5056192;28;20028;-83
2023/10/12 11:36:03;;;;;;;1.95;0.68;;;19.80;45.00;;;;;;5055260;28;20380;-83
2023/10/12 11:38:31;;;;;;;2.38;0.75;;;19.70;45.10;;;;;;5046465;28;20045;-80
2023/10/12 11:41:16;;;;;;;0.40;0.40;;;19.60;43.80;;;;;;5045179;28;20029;-80
2023/10/12 11:43:57;;;;;;;7.43;0.50;;;19.50;43.90;;;;;;5055540;28;20029;-80
2023/10/12 11:46:26;;;;;;;1.55;0.60;;;19.30;43.80;;;;;;5054245;28;20087;-81
2023/10/12 11:49:08;;;;;;;1.40;0.50;;;19.20;43.20;;;;;;5051704;28;20064;-80
2023/10/12 11:51:50;;;;;;;2.25;0.50;;;19.10;43.80;;;;;;5042269;28;20397;-81
2023/10/12 11:54:21;;;;;;;1.38;0.50;;;19.00;45.10;;;;;;5065466;28;20028;-81
2023/10/12 11:56:51;;;;;;;1.02;0.60;;;18.90;45.10;;;;;;5052433;28;20033;-81
2023/10/12 11:59:31;;;;;;;1.95;0.68;;;18.80;45.10;;;;;;5053380;28;20395;-81
2023/10/12 12:02:03;;;;;;;1.20;0.50;;;18.70;44.30;;;;;;5052279;28;20116;-80
2023/10/12 12:04:32;;;;;;;2.47;0.52;;;18.70;44.60;;;;;;5052065;28;20044;-81
2023/10/12 12:07:00;;;;;;;0.98;0.55;;;18.60;45.50;;;;;;5052748;28;20028;-81
2023/10/12 12:09:27;;;;;;;2.53;0.40;;;18.60;44.20;;;;;;5055160;28;20555;-82
2023/10/12 12:11:56;;;;;;;2.05;0.77;;;18.60;44.70;;;;;;5052591;28;20043;-81
2023/10/12 12:14:23;;;;;;;1.40;0.70;;;18.60;43.40;;;;;;5052043;28;20029;-82
2023/10/12 12:16:52;;;;;;;1.08;0.47;;;18.60;43.60;;;;;;5049099;28;20030;-81
2023/10/12 12:19:23;;;;;;;1.00;0.40;;;18.60;43.50;;;;;;5050004;28;20048;-81
2023/10/12 12:21:52;;;;;;;1.20;0.63;;;18.50;43.30;;;;;;5053239;28;20162;-80
2023/10/12 12:24:24;;;;;;;1.23;0.40;;;18.50;44.20;;;;;;5039340;28;20025;-80
2023/10/12 12:26:53;;;;;;;1.52;0.50;;;18.50;43.50;;;;;;5048207;28;20150;-81
2023/10/12 12:29:26;;;;;;;0.65;0.50;;;18.40;43.30;;;;;;5040647;28;20116;-81
2023/10/12 12:31:57;;;;;;;0.75;0.40;;;18.40;44.10;;;;;;5049752;28;20095;-81
2023/10/12 12:34:47;;;;;;;0.63;0.60;;;18.30;43.60;;;;;;5052983;28;20024;-80
2023/10/12 12:37:17;;;;;;;1.33;0.50;;;18.30;44.10;;;;;;5051094;28;20041;-82
2023/10/12 12:40:01;;;;;;;0.60;0.38;;;18.30;43.80;;;;;;5037927;28;20133;-82
2023/10/12 12:42:29;;;;;;;1.88;0.75;;;18.20;45.20;;;;;;5050440;28;20024;-81
2023/10/12 12:44:57;;;;;;;5.68;0.68;;;18.20;46.00;;;;;;5047535;28;20026;-81
2023/10/12 12:47:25;;;;;;;1.63;0.50;;;18.00;45.80;;;;;;5045296;28;20036;-81
2023/10/12 12:49:52;;;;;;;0.60;0.50;;;17.90;45.00;;;;;;5049190;28;20036;-82
2023/10/12 12:52:19;;;;;;;1.00;0.32;;;17.80;45.90;;;;;;5045945;28;20108;-80
2023/10/12 12:54:47;;;;;;;1.70;0.60;;;17.80;47.70;;;;;;5050648;28;20025;-80
2023/10/12 12:57:15;;;;;;;1.33;0.52;;;17.70;50.00;;;;;;5052413;28;20037;-81
2023/10/12 12:59:42;;;;;;;0.60;0.60;;;17.50;51.70;;;;;;5048786;28;20062;-80
2023/10/12 13:02:09;;;;;;;4.63;0.82;;;17.30;53.50;;;;;;5051279;28;20029;-81
2023/10/12 13:04:36;;;;;;;0.88;0.65;;;17.10;56.60;;;;;;5052308;28;20116;-80
2023/10/12 13:07:08;;;;;;;3.10;0.70;;;17.00;58.60;;;;;;5045433;28;20055;-82
2023/10/12 13:09:36;;;;;;;2.33;0.80;;;16.70;59.90;;;;;;5035944;28;20148;-81
2023/10/12 13:12:07;;;;;;;2.85;0.90;;;16.40;62.00;;;;;;5032948;28;20018;-81
2023/10/12 13:14:51;;;;;;;0.98;0.50;;;16.20;63.70;;;;;;5043668;28;20074;-82
2023/10/12 13:17:19;;;;;;;3.78;0.70;;;16.10;65.20;;;;;;5052971;28;20174;-82
2023/10/12 13:19:49;;;;;;;2.10;0.82;;;16.20;65.50;;;;;;5046810;28;20131;-82
2023/10/12 13:22:17;;;;;;;2.30;0.50;;;16.10;65.70;;;;;;5051427;28;20056;-82
2023/10/12 13:24:44;;;;;;;1.98;0.70;;;15.90;66.90;;;;;;5051223;28;20047;-83
2023/10/12 13:27:19;;;;;;;3.97;1.33;;;15.90;66.90;;;;;;5047978;28;20029;-80
2023/10/12 13:29:48;;;;;;;0.90;0.60;;;15.80;67.80;;;;;;5048208;28;20111;-82
2023/10/12 13:32:17;;;;;;;2.38;0.70;;;15.80;67.60;;;;;;5052767;28;20021;-82
2023/10/12 13:34:45;;;;;;;3.35;0.68;;;15.70;67.50;;;;;;5054715;28;20024;-80
2023/10/12 13:37:13;;;;;;;1.63;0.70;;;15.60;68.10;;;;;;5051018;28;20143;-81
2023/10/12 13:39:40;;;;;;;3.03;0.77;;;15.50;68.80;;;;;;5048741;28;20043;-80
2023/10/12 13:42:11;;;;;;;3.30;0.60;;;15.80;69.40;;;;;;5051897;28;20025;-81
2023/10/12 13:44:42;;;;;;;1.60;0.85;;;15.70;68.00;;;;;;5041492;28;20028;-81
2023/10/12 13:47:12;;;;;;;1.05;0.52;;;15.70;68.40;;;;;;5037977;28;20555;-81
2023/10/12 13:49:40;;;;;;;1.88;0.60;;;15.70;68.70;;;;;;5050595;28;20029;-80
2023/10/12 13:52:10;;;;;;;2.47;1.02;;;15.80;69.10;;;;;;5052097;28;20120;-83
2023/10/12 13:54:45;;;;;;;2.65;0.60;;;16.00;69.70;;;;;;5051801;28;20483;-82
2023/10/12 13:57:14;;;;;;;4.80;0.80;;;15.90;68.50;;;;;;5044703;28;20033;-82
2023/10/12 13:59:45;;;;;;;1.33;0.60;;;15.80;68.50;;;;;;5049641;28;20029;-81
2023/10/12 14:02:13;;;;;;;1.88;0.60;;;15.70;68.40;;;;;;5051674;28;20401;-80
2023/10/12 14:04:44;;;;;;;1.55;0.70;;;15.70;68.80;;;;;;5051008;28;20041;-82
2023/10/12 14:07:16;;;;;;;2.08;1.02;;;15.70;69.40;;;;;;5047540;28;20055;-82
2023/10/12 14:09:43;;;;;;;1.73;0.68;;;15.90;69.80;;;;;;5060075;28;20107;-82
2023/10/12 14:12:10;;;;;;;1.48;0.70;;;16.00;68.90;;;;;;5059084;28;20056;-82
2023/10/12 14:14:38;;;;;;;0.93;0.50;;;16.10;68.70;;;;;;5041248;28;20043;-82
2023/10/12 14:17:07;;;;;;;1.95;0.77;;;15.90;68.00;;;;;;5037601;28;20025;-81
2023/10/12 14:19:35;;;;;;;2.30;0.60;;;15.80;67.80;;;;;;5041325;28;20021;-80
2023/10/12 14:22:04;;;;;;;3.03;0.65;;;15.60;67.90;;;;;;5054548;28;21679;-82
2023/10/12 14:24:33;;;;;;;2.13;0.82;;;15.70;69.50;;;;;;5049755;28;20032;-81
2023/10/12 14:27:01;;;;;;;1.27;0.70;;;15.70;69.30;;;;;;5055354;28;20099;-81
2023/10/12 14:29:29;;;;;;;1.95;0.57;;;15.70;69.10;;;;;;5055452;28;20021;-83
2023/10/12 14:31:57;;;;;;;1.48;0.60;;;15.70;69.70;;;;;;5056349;28;20476;-81
2023/10/12 14:34:27;;;;;;;0.95;0.82;;;15.80;69.80;;;;;;5051008;28;20111;-81
2023/10/12 14:36:54;;;;;;;1.50;0.50;;;15.80;69.00;;;;;;5039089;28;20037;-81
2023/10/12 14:39:25;;;;;;;4.13;0.77;;;15.80;68.10;;;;;;5063766;28;20048;-82
2023/10/12 14:41:52;;;;;;;2.92;0.70;;;15.80;67.80;;;;;;5043295;28;20025;-80
2023/10/12 14:44:20;;;;;;;1.77;0.40;;;15.90;66.70;;;;;;5046374;28;20079;-80
2023/10/12 14:46:50;;;;;;;1.00;0.50;;;15.80;65.60;;;;;;5036449;28;20029;-81
2023/10/12 14:49:17;;;;;;;1.60;0.40;;;15.90;66.10;;;;;;5038625;28;20032;-81
2023/10/12 14:51:44;;;;;;;1.27;0.60;;;15.80;64.80;;;;;;5054949;28;20133;-81
2023/10/12 14:54:12;;;;;;;0.45;0.45;;;15.70;64.00;;;;;;5053994;28;20025;-80
2023/10/12 14:56:42;;;;;;;1.75;0.60;;;15.60;64.40;;;;;;5041821;28;20480;-80
2023/10/12 14:59:09;;;;;;;1.27;0.50;;;15.50;64.40;;;;;;5047268;28;20029;-82
2023/10/12 15:01:38;;;;;;;1.73;0.60;;;15.50;64.30;;;;;;5063723;28;20379;-80
2023/10/12 15:04:10;;;;;;;1.90;0.65;;;15.40;64.20;;;;;;5066459;28;20021;-80
2023/10/12 15:06:37;;;;;;;1.23;0.60;;;15.50;65.10;;;;;;5050723;28;20037;-81
2023/10/12 15:09:10;;;;;;;2.13;0.50;;;15.40;63.50;;;;;;5047847;28;20021;-81
2023/10/12 15:11:37;;;;;;;0.43;0.43;;;15.30;64.00;;;;;;5049933;28;20082;-82
2023/10/12 15:14:06;;;;;;;1.52;0.60;;;15.30;63.20;;;;;;5036755;28;20036;-82
2023/10/12 15:16:33;;;;;;;3.33;0.93;;;15.20;63.00;;;;;;5045674;28;20542;-81
2023/10/12 15:19:08;;;;;;;1.42;0.50;;;15.20;63.30;;;;;;5045639;28;20038;-80
2023/10/12 15:21:36;;;;;;;2.03;0.45;;;15.30;63.40;;;;;;5041997;28;20025;-82
2023/10/12 15:24:04;;;;;;;1.38;0.50;;;15.30;62.80;;;;;;5052244;28;20112;-80
2023/10/12 15:26:31;;;;;;;1.38;0.60;;;15.40;62.30;;;;;;5044812;28;20025;-81
2023/10/12 15:29:08;;;;;;;1.65;0.50;;;15.40;62.60;;;;;;5046882;28;20030;-80
2023/10/12 15:31:35;;;;;;;1.88;0.40;;;15.50;62.30;;;;;;5052131;28;20506;-80
2023/10/12 15:34:02;;;;;;;1.65;0.40;;;15.50;62.60;;;;;;5047538;28;20025;-80